createdAt,value
2022-08-11T00:00:16.162Z,73.35
2022-08-11T00:00:36.264Z,73.35
2022-08-11T00:00:56.339Z,73.1
2022-08-11T00:01:16.415Z,73.14
2022-08-11T00:01:36.485Z,73.12
2022-08-11T00:01:56.566Z,73.07
2022-08-11T00:02:16.625Z,73.14
2022-08-11T00:02:36.914Z,73.11
2022-08-11T00:02:56.887Z,73.09
2022-08-11T00:03:16.989Z,73.04
2022-08-11T00:03:43.170Z,73.12
2022-08-11T00:03:57.078Z,73.13
2022-08-11T00:04:17.140Z,72.67
2022-08-11T00:04:37.297Z,72.49
2022-08-11T00:04:57.404Z,72.62
2022-08-11T00:05:17.344Z,72.99
2022-08-11T00:05:37.405Z,73.34
2022-08-11T00:05:57.470Z,73.91
2022-08-11T00:06:17.542Z,74.03
2022-08-11T00:06:37.632Z,73.67
2022-08-11T00:06:57.671Z,73.44
2022-08-11T00:07:17.748Z,73.45
2022-08-11T00:07:37.826Z,73.35
2022-08-11T00:07:57.925Z,73.18
2022-08-11T00:08:18.007Z,73.21
2022-08-11T00:08:38.050Z,73.32
2022-08-11T00:08:58.128Z,73.67
2022-08-11T00:09:18.195Z,73.87
2022-08-11T00:09:39.490Z,74.01
2022-08-11T00:09:58.430Z,73.96
2022-08-11T00:10:18.415Z,74.11
2022-08-11T00:10:38.481Z,74.34
2022-08-11T00:10:58.541Z,74.46
2022-08-11T00:11:18.612Z,74.16
2022-08-11T00:11:38.653Z,73.97
2022-08-11T00:11:59.080Z,73.79
2022-08-11T00:12:18.808Z,73.68
2022-08-11T00:12:39.093Z,73.93
2022-08-11T00:12:58.949Z,74.2
2022-08-11T00:13:19.045Z,74.38
2022-08-11T00:13:39.081Z,74.23
2022-08-11T00:13:59.151Z,73.96
2022-08-11T00:14:19.194Z,74.02
2022-08-11T00:14:39.275Z,74.08
2022-08-11T00:14:59.491Z,73.93
2022-08-11T00:15:19.458Z,73.89
2022-08-11T00:15:39.544Z,73.79
2022-08-11T00:15:59.646Z,73.81
2022-08-11T00:16:19.704Z,73.9
2022-08-11T00:16:39.821Z,74.48
2022-08-11T00:16:59.933Z,74.71
2022-08-11T00:17:20.018Z,75.02
2022-08-11T00:17:40.056Z,75.11
2022-08-11T00:18:00.183Z,75.19
2022-08-11T00:18:20.220Z,75.16
2022-08-11T00:18:40.290Z,75.32
2022-08-11T00:19:00.396Z,75.48
2022-08-11T00:19:20.478Z,75.6
2022-08-11T00:20:12.792Z,75.36
2022-08-11T00:20:13.769Z,75.48
2022-08-11T00:20:20.686Z,75.36
2022-08-11T00:20:40.751Z,75.41
2022-08-11T00:21:00.810Z,75.49
2022-08-11T00:21:20.898Z,75.61
2022-08-11T00:22:04.305Z,75.89
2022-08-11T00:22:04.878Z,75.83
2022-08-11T00:22:21.173Z,75.78
2022-08-11T00:22:41.217Z,75.78
2022-08-11T00:23:01.299Z,75.92
2022-08-11T00:23:21.408Z,75.78
2022-08-11T00:23:41.461Z,75.43
2022-08-11T00:24:01.557Z,75.59
2022-08-11T00:24:21.602Z,75.49
2022-08-11T00:24:52.661Z,75.52
2022-08-11T00:25:02.776Z,75.5
2022-08-11T00:25:21.821Z,75.47
2022-08-11T00:25:41.881Z,75.69
2022-08-11T00:26:01.951Z,75.74
2022-08-11T00:26:22.041Z,75.8
2022-08-11T00:26:42.135Z,75.7
2022-08-11T00:27:02.206Z,75.7
2022-08-11T00:27:22.270Z,75.61
2022-08-11T00:27:42.341Z,75.43
2022-08-11T00:28:02.401Z,75.31
2022-08-11T00:28:22.466Z,75.4
2022-08-11T00:28:42.548Z,75.61
2022-08-11T00:29:02.617Z,75.75
2022-08-11T00:29:22.712Z,75.91
2022-08-11T00:29:51.687Z,76.08
2022-08-11T00:30:02.995Z,76.19
2022-08-11T00:30:22.938Z,75.74
2022-08-11T00:30:43.034Z,75.51
2022-08-11T00:31:04.250Z,75.49
2022-08-11T00:31:23.195Z,75.69
2022-08-11T00:31:43.245Z,75.63
2022-08-11T00:32:03.334Z,75.79
2022-08-11T00:32:23.422Z,75.73
2022-08-11T00:32:43.498Z,75.73
2022-08-11T00:33:03.572Z,75.78
2022-08-11T00:33:44.288Z,75.98
2022-08-11T00:33:44.747Z,76.21
2022-08-11T00:34:03.800Z,76.12
2022-08-11T00:34:23.875Z,76.06
2022-08-11T00:34:43.903Z,75.73
2022-08-11T00:35:50.882Z,76.26
2022-08-11T00:35:51.272Z,76.05
2022-08-11T00:35:54.809Z,75.9
2022-08-11T00:36:04.211Z,75.65
2022-08-11T00:36:25.657Z,75.7
2022-08-11T00:36:44.382Z,75.93
2022-08-11T00:37:04.481Z,75.9
2022-08-11T00:37:24.559Z,75.97
2022-08-11T00:37:44.629Z,76.17
2022-08-11T00:38:04.715Z,76.01
2022-08-11T00:38:24.819Z,75.82
2022-08-11T00:38:44.876Z,76.11
2022-08-11T00:39:04.949Z,75.82
2022-08-11T00:39:28.677Z,75.84
2022-08-11T00:39:45.126Z,75.73
2022-08-11T00:40:05.337Z,75.77
2022-08-11T00:40:25.206Z,76.02
2022-08-11T00:40:45.254Z,76.17
2022-08-11T00:41:05.344Z,76.38
2022-08-11T00:41:25.406Z,76.46
2022-08-11T00:41:45.472Z,76.51
2022-08-11T00:42:05.541Z,76.49
2022-08-11T00:42:25.621Z,76.51
2022-08-11T00:42:45.713Z,76.42
2022-08-11T00:43:05.776Z,76.37
2022-08-11T00:43:25.866Z,76.37
2022-08-11T00:43:45.918Z,76.32
2022-08-11T00:44:06.019Z,76.29
2022-08-11T00:44:26.087Z,76.3
2022-08-11T00:44:46.131Z,76.42
2022-08-11T00:45:06.333Z,76.28
2022-08-11T00:45:26.288Z,76.71
2022-08-11T00:45:46.388Z,77.12
2022-08-11T00:46:06.445Z,76.76
2022-08-11T00:46:26.540Z,76.48
2022-08-11T00:46:46.605Z,76.76
2022-08-11T00:47:06.655Z,76.66
2022-08-11T00:47:26.733Z,76.76
2022-08-11T00:47:46.824Z,76.74
2022-08-11T00:48:06.878Z,76.73
2022-08-11T00:48:26.989Z,77.02
2022-08-11T00:48:47.033Z,76.92
2022-08-11T00:49:07.127Z,76.58
2022-08-11T00:49:27.205Z,76.33
2022-08-11T00:49:47.304Z,76.39
2022-08-11T00:50:07.513Z,76.42
2022-08-11T00:50:27.468Z,76.66
2022-08-11T00:50:47.541Z,76.39
2022-08-11T00:51:07.625Z,76.52
2022-08-11T00:51:27.730Z,76.54
2022-08-11T00:51:59.802Z,76.69
2022-08-11T00:52:07.893Z,77.07
2022-08-11T00:52:27.994Z,77.16
2022-08-11T00:52:48.022Z,77.11
2022-08-11T00:53:08.112Z,76.73
2022-08-11T00:53:28.205Z,76.68
2022-08-11T00:53:48.273Z,76.66
2022-08-11T00:54:08.345Z,76.53
2022-08-11T00:54:28.416Z,76.73
2022-08-11T00:54:48.485Z,76.93
2022-08-11T00:55:08.687Z,76.95
2022-08-11T00:55:28.617Z,76.84
2022-08-11T00:55:55.541Z,77.11
2022-08-11T00:56:08.777Z,77.24
2022-08-11T00:56:28.856Z,77.13
2022-08-11T00:56:48.944Z,76.95
2022-08-11T00:57:35.894Z,77.06
2022-08-11T00:57:37.110Z,77.12
2022-08-11T00:57:49.156Z,77.27
2022-08-11T00:58:09.216Z,77.21
2022-08-11T00:58:29.289Z,77.05
2022-08-11T00:58:51.064Z,77.21
2022-08-11T00:59:34.529Z,77.48
2022-08-11T00:59:35.223Z,77.47
2022-08-11T00:59:49.531Z,77.56
2022-08-11T01:00:09.755Z,77.89
2022-08-11T01:00:29.679Z,77.5
2022-08-11T01:00:49.783Z,77.37
2022-08-11T01:01:09.879Z,77.41
2022-08-11T01:01:29.997Z,77.68
2022-08-11T01:01:49.964Z,77.76
2022-08-11T01:02:10.063Z,77.78
2022-08-11T01:02:30.116Z,78.16
2022-08-11T01:02:50.184Z,78.2
2022-08-11T01:03:10.250Z,78.16
2022-08-11T01:03:30.355Z,78.12
2022-08-11T01:03:50.433Z,78.27
2022-08-11T01:04:10.510Z,78.47
2022-08-11T01:04:30.600Z,78.4
2022-08-11T01:04:55.539Z,78.31
2022-08-11T01:05:10.928Z,78.18
2022-08-11T01:05:30.846Z,78.05
2022-08-11T01:05:50.952Z,77.9
2022-08-11T01:06:11.045Z,77.84
2022-08-11T01:06:31.120Z,77.76
2022-08-11T01:06:51.214Z,77.89
2022-08-11T01:07:11.264Z,77.81
2022-08-11T01:08:01.543Z,77.87
2022-08-11T01:08:01.703Z,78.07
2022-08-11T01:08:11.463Z,78
2022-08-11T01:08:31.537Z,78.09
2022-08-11T01:08:51.595Z,77.99
2022-08-11T01:09:22.319Z,78.21
2022-08-11T01:09:31.757Z,77.77
2022-08-11T01:09:51.817Z,77.63
2022-08-11T01:10:12.094Z,77.62
2022-08-11T01:10:31.932Z,77.81
2022-08-11T01:10:52.036Z,77.99
2022-08-11T01:11:12.064Z,78.19
2022-08-11T01:11:32.142Z,78.18
2022-08-11T01:11:56.000Z,78.2
2022-08-11T01:12:12.319Z,78.58
2022-08-11T01:12:32.494Z,78.49
2022-08-11T01:12:52.493Z,78.01
2022-08-11T01:13:12.551Z,77.59
2022-08-11T01:13:32.662Z,77.69
2022-08-11T01:13:52.741Z,78.05
2022-08-11T01:14:12.818Z,78.49
2022-08-11T01:14:34.605Z,78.4
2022-08-11T01:14:52.974Z,78.58
2022-08-11T01:15:13.198Z,78.87
2022-08-11T01:15:33.149Z,78.6
2022-08-11T01:15:57.420Z,78.51
2022-08-11T01:16:13.322Z,78.64
2022-08-11T01:16:33.371Z,78.69
2022-08-11T01:16:53.447Z,78.6
2022-08-11T01:17:13.921Z,78.5
2022-08-11T01:17:33.616Z,78.41
2022-08-11T01:17:53.665Z,78.09
2022-08-11T01:18:13.732Z,78.54
2022-08-11T01:18:33.814Z,78.97
2022-08-11T01:18:53.908Z,79.27
2022-08-11T01:19:13.970Z,79.24
2022-08-11T01:19:34.036Z,79.38
2022-08-11T01:20:45.970Z,79.47
2022-08-11T01:20:45.970Z,79.63
2022-08-11T01:20:48.746Z,79.72
2022-08-11T01:20:54.378Z,79.85
2022-08-11T01:21:14.423Z,80
2022-08-11T01:21:34.491Z,79.64
2022-08-11T01:21:55.189Z,79.44
2022-08-11T01:22:14.607Z,79.14
2022-08-11T01:22:34.688Z,79.34
2022-08-11T01:22:54.754Z,79.63
2022-08-11T01:23:17.387Z,79.3
2022-08-11T01:23:34.914Z,79.21
2022-08-11T01:23:55.005Z,79.09
2022-08-11T01:24:15.044Z,78.86
2022-08-11T01:24:35.094Z,78.54
2022-08-11T01:24:55.158Z,78.66
2022-08-11T01:25:15.423Z,78.84
2022-08-11T01:25:35.295Z,78.72
2022-08-11T01:25:56.677Z,79.03
2022-08-11T01:26:15.429Z,79.05
2022-08-11T01:26:35.520Z,79.09
2022-08-11T01:26:55.620Z,79.25
2022-08-11T01:27:18.999Z,79.33
2022-08-11T01:27:35.751Z,79.35
2022-08-11T01:27:55.837Z,79.39
2022-08-11T01:28:15.903Z,79.25
2022-08-11T01:28:36.004Z,79.58
2022-08-11T01:28:56.052Z,80
2022-08-11T01:29:16.132Z,79.97
2022-08-11T01:29:36.238Z,79.55
2022-08-11T01:29:56.306Z,79.33
2022-08-11T01:30:16.578Z,79.13
2022-08-11T01:30:36.477Z,78.93
2022-08-11T01:30:56.551Z,78.75
2022-08-11T01:31:16.634Z,78.65
2022-08-11T01:31:36.703Z,78.86
2022-08-11T01:31:56.785Z,79.24
2022-08-11T01:32:16.848Z,79.3
2022-08-11T01:32:37.128Z,79.39
2022-08-11T01:32:56.995Z,79.51
2022-08-11T01:33:17.058Z,79.74
2022-08-11T01:33:37.147Z,79.55
2022-08-11T01:33:57.227Z,79.15
2022-08-11T01:34:17.299Z,79.54
2022-08-11T01:34:37.380Z,79.89
2022-08-11T01:34:57.444Z,80.05
2022-08-11T01:35:17.712Z,80.05
2022-08-11T01:35:37.607Z,80.34
2022-08-11T01:35:57.654Z,80.37
2022-08-11T01:36:17.716Z,80.35
2022-08-11T01:36:37.802Z,80.45
2022-08-11T01:36:57.922Z,80.4
2022-08-11T01:37:17.998Z,80.13
2022-08-11T01:37:38.071Z,80.06
2022-08-11T01:37:58.165Z,80.33
2022-08-11T01:38:18.246Z,80.84
2022-08-11T01:38:38.339Z,80.96
2022-08-11T01:38:58.420Z,80.94
2022-08-11T01:39:18.773Z,81.03
2022-08-11T01:39:38.609Z,80.86
2022-08-11T01:39:58.718Z,80.76
2022-08-11T01:40:18.870Z,80.46
2022-08-11T01:40:38.822Z,80.41
2022-08-11T01:40:58.910Z,80.46
2022-08-11T01:41:18.966Z,81.03
2022-08-11T01:41:39.035Z,81.03
2022-08-11T01:41:59.115Z,80.79
2022-08-11T01:42:19.194Z,80.93
2022-08-11T01:42:39.491Z,80.91
2022-08-11T01:42:59.353Z,80.65
2022-08-11T01:43:19.431Z,80.27
2022-08-11T01:43:39.512Z,80.44
2022-08-11T01:43:59.596Z,80.63
2022-08-11T01:44:19.716Z,80.87
2022-08-11T01:44:39.767Z,80.97
2022-08-11T01:44:59.861Z,80.97
2022-08-11T01:45:20.059Z,81.03
2022-08-11T01:45:40.007Z,80.75
2022-08-11T01:46:00.091Z,80.74
2022-08-11T01:46:20.141Z,80.95
2022-08-11T01:46:40.253Z,81.14
2022-08-11T01:47:00.285Z,81.46
2022-08-11T01:47:20.351Z,81.6
2022-08-11T01:47:50.525Z,81.54
2022-08-11T01:48:00.510Z,81.71
2022-08-11T01:48:20.579Z,81.61
2022-08-11T01:48:40.681Z,81.35
2022-08-11T01:49:00.738Z,80.69
2022-08-11T01:50:06.967Z,80.8
2022-08-11T01:50:07.847Z,81.23
2022-08-11T01:50:08.215Z,81.02
2022-08-11T01:50:21.211Z,81.39
2022-08-11T01:50:41.180Z,81.3
2022-08-11T01:51:01.243Z,81.29
2022-08-11T01:51:21.338Z,81.15
2022-08-11T01:51:45.163Z,81.04
2022-08-11T01:52:01.487Z,81.48
2022-08-11T01:52:31.017Z,81.73
2022-08-11T01:52:41.923Z,81.53
2022-08-11T01:53:01.746Z,81.8
2022-08-11T01:53:21.812Z,82.07
2022-08-11T01:53:41.870Z,81.66
2022-08-11T01:54:01.940Z,81.74
2022-08-11T01:54:22.030Z,81.71
2022-08-11T01:54:42.112Z,81.43
2022-08-11T01:55:02.211Z,81.28
2022-08-11T01:55:22.405Z,81.39
2022-08-11T01:55:42.365Z,81.37
2022-08-11T01:56:02.443Z,81.53
2022-08-11T01:56:22.499Z,81.04
2022-08-11T01:56:42.541Z,80.96
2022-08-11T01:57:02.617Z,81.07
2022-08-11T01:57:22.718Z,81.08
2022-08-11T01:57:42.807Z,81.17
2022-08-11T01:58:02.902Z,81.35
2022-08-11T01:58:43.087Z,81.2
2022-08-11T01:58:43.530Z,81.33
2022-08-11T01:59:03.100Z,80.95
2022-08-11T01:59:23.169Z,81.21
2022-08-11T01:59:43.257Z,81.61
2022-08-11T02:00:03.341Z,81.8
2022-08-11T02:00:23.522Z,81.88
2022-08-11T02:00:43.520Z,81.89
2022-08-11T02:01:03.639Z,81.77
2022-08-11T02:01:23.719Z,81.81
2022-08-11T02:01:43.740Z,81.59
2022-08-11T02:02:03.807Z,81.33
2022-08-11T02:02:23.906Z,81.71
2022-08-11T02:02:43.986Z,81.92
2022-08-11T02:03:04.067Z,82.25
2022-08-11T02:03:24.130Z,82.33
2022-08-11T02:03:44.206Z,82.25
2022-08-11T02:04:04.274Z,82.28
2022-08-11T02:04:24.349Z,82.07
2022-08-11T02:04:44.419Z,81.92
2022-08-11T02:05:04.499Z,82.06
2022-08-11T02:05:24.761Z,82.48
2022-08-11T02:05:44.638Z,82.51
2022-08-11T02:06:04.748Z,82.62
2022-08-11T02:06:24.840Z,82.69
2022-08-11T02:06:44.898Z,82.58
2022-08-11T02:07:04.942Z,82.27
2022-08-11T02:07:25.001Z,81.98
2022-08-11T02:07:45.052Z,82
2022-08-11T02:08:05.125Z,81.98
2022-08-11T02:08:33.425Z,81.93
2022-08-11T02:08:50.308Z,81.65
2022-08-11T02:09:05.350Z,81.48
2022-08-11T02:09:25.438Z,81.41
2022-08-11T02:09:50.031Z,81.45
2022-08-11T02:10:05.583Z,81.74
2022-08-11T02:10:25.786Z,82.22
2022-08-11T02:10:50.367Z,82.48
2022-08-11T02:11:05.851Z,82.48
2022-08-11T02:11:25.900Z,82.44
2022-08-11T02:11:45.976Z,82.13
2022-08-11T02:12:06.092Z,81.78
2022-08-11T02:12:26.135Z,81.74
2022-08-11T02:12:51.166Z,81.81
2022-08-11T02:13:06.299Z,81.91
2022-08-11T02:13:30.972Z,81.93
2022-08-11T02:13:46.714Z,82.03
2022-08-11T02:14:06.531Z,81.84
2022-08-11T02:14:26.594Z,81.64
2022-08-11T02:14:57.274Z,82.2
2022-08-11T02:15:06.762Z,82.39
2022-08-11T02:15:26.969Z,82.64
2022-08-11T02:15:46.909Z,82.77
2022-08-11T02:16:07.004Z,82.91
2022-08-11T02:16:27.095Z,83.1
2022-08-11T02:16:47.167Z,82.85
2022-08-11T02:17:07.284Z,82.4
2022-08-11T02:17:27.353Z,82.11
2022-08-11T02:17:47.396Z,82.19
2022-08-11T02:18:07.491Z,82.39
2022-08-11T02:18:27.574Z,82.62
2022-08-11T02:18:47.675Z,82.97
2022-08-11T02:19:07.710Z,83.05
2022-08-11T02:19:27.789Z,82.85
2022-08-11T02:19:47.843Z,82.8
2022-08-11T02:20:07.902Z,82.59
2022-08-11T02:20:28.100Z,82.95
2022-08-11T02:20:48.049Z,82.98
2022-08-11T02:21:08.117Z,83.33
2022-08-11T02:21:28.165Z,83.58
2022-08-11T02:21:48.287Z,83.73
2022-08-11T02:22:08.343Z,83.63
2022-08-11T02:22:28.449Z,83.53
2022-08-11T02:22:48.456Z,83.36
2022-08-11T02:23:08.519Z,83.51
2022-08-11T02:24:06.886Z,83.84
2022-08-11T02:24:06.917Z,83.71
2022-08-11T02:24:08.720Z,83.73
2022-08-11T02:24:28.735Z,83.49
2022-08-11T02:24:48.847Z,83.43
2022-08-11T02:25:08.914Z,83.33
2022-08-11T02:25:29.109Z,83.26
2022-08-11T02:25:49.050Z,83.52
2022-08-11T02:26:09.141Z,84.03
2022-08-11T02:26:29.175Z,84.12
2022-08-11T02:26:49.273Z,84.05
2022-08-11T02:27:09.334Z,84
2022-08-11T02:27:29.375Z,83.6
2022-08-11T02:27:49.430Z,83.26
2022-08-11T02:28:09.524Z,83.07
2022-08-11T02:28:29.584Z,83.22
2022-08-11T02:28:49.704Z,83.4
2022-08-11T02:29:09.804Z,83.5
2022-08-11T02:29:29.891Z,83.73
2022-08-11T02:29:49.965Z,83.76
2022-08-11T02:30:10.004Z,83.61
2022-08-11T02:30:30.215Z,83.45
2022-08-11T02:30:50.144Z,83.41
2022-08-11T02:31:10.232Z,83.73
2022-08-11T02:32:15.512Z,83.56
2022-08-11T02:32:23.801Z,83.74
2022-08-11T02:32:28.551Z,83.77
2022-08-11T02:32:33.920Z,83.4
2022-08-11T02:32:50.595Z,83.38
2022-08-11T02:33:10.648Z,83.59
2022-08-11T02:33:30.705Z,83.85
2022-08-11T02:33:50.773Z,84.28
2022-08-11T02:34:10.834Z,84.44
2022-08-11T02:34:30.913Z,84.34
2022-08-11T02:34:59.619Z,84.14
2022-08-11T02:35:11.080Z,83.79
2022-08-11T02:35:31.266Z,83.65
2022-08-11T02:35:51.219Z,83.65
2022-08-11T02:36:11.252Z,83.71
2022-08-11T02:36:31.342Z,84.24
2022-08-11T02:36:51.426Z,84.6
2022-08-11T02:37:11.468Z,84.73
2022-08-11T02:37:31.555Z,84.52
2022-08-11T02:37:51.599Z,84.24
2022-08-11T02:38:11.707Z,84.21
2022-08-11T02:38:31.771Z,83.93
2022-08-11T02:38:51.814Z,83.54
2022-08-11T02:39:11.973Z,83.16
2022-08-11T02:39:32.045Z,83.26
2022-08-11T02:39:52.111Z,83.68
2022-08-11T02:40:12.124Z,84
2022-08-11T02:40:32.278Z,83.93
2022-08-11T02:40:52.279Z,83.76
2022-08-11T02:41:12.317Z,83.76
2022-08-11T02:41:32.387Z,83.86
2022-08-11T02:41:52.485Z,83.92
2022-08-11T02:42:32.928Z,83.72
2022-08-11T02:42:35.753Z,83.54
2022-08-11T02:42:52.650Z,83.62
2022-08-11T02:43:12.719Z,83.69
2022-08-11T02:43:32.785Z,84.04
2022-08-11T02:43:52.888Z,84.17
2022-08-11T02:44:12.926Z,83.86
2022-08-11T02:44:33.023Z,83.67
2022-08-11T02:44:53.107Z,83.75
2022-08-11T02:45:13.190Z,83.57
2022-08-11T02:45:33.354Z,83.49
2022-08-11T02:45:53.350Z,83.75
2022-08-11T02:46:18.140Z,84.13
2022-08-11T02:46:33.469Z,84.51
2022-08-11T02:46:53.516Z,84.7
2022-08-11T02:47:13.615Z,84.68
2022-08-11T02:47:33.705Z,84.54
2022-08-11T02:47:53.803Z,84.52
2022-08-11T02:48:13.872Z,84.28
2022-08-11T02:48:33.969Z,83.94
2022-08-11T02:48:54.047Z,84.38
2022-08-11T02:49:14.107Z,84.44
2022-08-11T02:49:34.188Z,84.44
2022-08-11T02:50:06.279Z,84.65
2022-08-11T02:50:14.314Z,84.66
2022-08-11T02:50:34.539Z,84.5
2022-08-11T02:50:54.471Z,84.63
2022-08-11T02:51:14.535Z,84.43
2022-08-11T02:51:34.619Z,84.41
2022-08-11T02:51:54.701Z,84.53
2022-08-11T02:52:14.781Z,84.75
2022-08-11T02:52:34.847Z,84.77
2022-08-11T02:52:54.928Z,84.78
2022-08-11T02:53:15.017Z,85.01
2022-08-11T02:53:35.090Z,85.17
2022-08-11T02:53:58.065Z,85.13
2022-08-11T02:54:15.204Z,85.05
2022-08-11T02:54:35.263Z,84.99
2022-08-11T02:54:55.332Z,84.92
2022-08-11T02:55:48.579Z,84.89
2022-08-11T02:55:48.748Z,85.09
2022-08-11T02:55:57.901Z,85.23
2022-08-11T02:56:15.592Z,85.29
2022-08-11T02:56:35.646Z,85.23
2022-08-11T02:56:55.716Z,85.31
2022-08-11T02:57:15.826Z,85.25
2022-08-11T02:57:35.916Z,85.02
2022-08-11T02:57:56.009Z,84.56
2022-08-11T02:58:16.072Z,84.48
2022-08-11T02:58:36.139Z,84.71
2022-08-11T02:58:56.217Z,84.99
2022-08-11T02:59:16.305Z,85.29
2022-08-11T02:59:36.391Z,85.43
2022-08-11T02:59:56.446Z,85.61
2022-08-11T03:00:16.494Z,85.73
2022-08-11T03:00:36.707Z,85.8
2022-08-11T03:00:56.644Z,85.63
2022-08-11T03:01:16.804Z,85.26
2022-08-11T03:01:36.846Z,84.84
2022-08-11T03:02:04.958Z,84.81
2022-08-11T03:02:16.983Z,85.01
2022-08-11T03:02:37.285Z,85.14
2022-08-11T03:02:57.150Z,85.38
2022-08-11T03:03:17.256Z,85.21
2022-08-11T03:03:37.285Z,84.97
2022-08-11T03:03:57.340Z,84.63
2022-08-11T03:04:17.389Z,84.35
2022-08-11T03:04:38.020Z,84.13
2022-08-11T03:04:57.548Z,84.08
2022-08-11T03:05:17.605Z,84.6
2022-08-11T03:05:37.860Z,84.58
2022-08-11T03:05:57.762Z,84.26
2022-08-11T03:06:17.847Z,84.22
2022-08-11T03:06:37.889Z,84.04
2022-08-11T03:06:57.954Z,84.2
2022-08-11T03:07:29.575Z,84.36
2022-08-11T03:07:38.112Z,84.52
2022-08-11T03:07:58.196Z,84.65
2022-08-11T03:08:18.271Z,84.72
2022-08-11T03:08:38.379Z,84.8
2022-08-11T03:08:58.473Z,84.34
2022-08-11T03:09:18.515Z,84.06
2022-08-11T03:09:38.579Z,84.1
2022-08-11T03:09:58.669Z,84.14
2022-08-11T03:10:18.718Z,84.19
2022-08-11T03:10:38.956Z,84.44
2022-08-11T03:10:58.904Z,84.53
2022-08-11T03:11:18.976Z,84.88
2022-08-11T03:11:39.043Z,84.85
2022-08-11T03:11:59.133Z,84.75
2022-08-11T03:12:19.231Z,84.62
2022-08-11T03:12:39.465Z,84.49
2022-08-11T03:12:59.363Z,84.55
2022-08-11T03:13:19.454Z,85
2022-08-11T03:13:39.515Z,85.24
2022-08-11T03:13:59.626Z,85.37
2022-08-11T03:14:19.688Z,85.3
2022-08-11T03:14:39.766Z,85.2
2022-08-11T03:14:59.840Z,84.93
2022-08-11T03:15:19.941Z,84.69
2022-08-11T03:15:40.175Z,84.94
2022-08-11T03:16:00.078Z,85.16
2022-08-11T03:16:20.139Z,85.69
2022-08-11T03:16:40.232Z,85.45
2022-08-11T03:17:00.317Z,85.6
2022-08-11T03:17:20.421Z,85.71
2022-08-11T03:17:40.519Z,85.06
2022-08-11T03:18:00.598Z,84.8
2022-08-11T03:18:20.663Z,84.81
2022-08-11T03:18:40.740Z,85.2
2022-08-11T03:19:00.823Z,85.58
2022-08-11T03:19:20.909Z,85.72
2022-08-11T03:19:41.002Z,85.71
2022-08-11T03:20:01.208Z,85.56
2022-08-11T03:20:21.165Z,85.48
2022-08-11T03:20:41.385Z,85.28
2022-08-11T03:21:01.313Z,85.08
2022-08-11T03:21:21.374Z,85.03
2022-08-11T03:22:03.120Z,84.99
2022-08-11T03:22:03.455Z,85.15
2022-08-11T03:22:21.602Z,85.37
2022-08-11T03:22:41.682Z,85.41
2022-08-11T03:23:01.779Z,85.37
2022-08-11T03:23:21.866Z,85.37
2022-08-11T03:23:41.953Z,85.61
2022-08-11T03:24:02.016Z,85.51
2022-08-11T03:24:22.064Z,85.56
2022-08-11T03:24:42.165Z,85.55
2022-08-11T03:25:02.240Z,85.62
2022-08-11T03:25:22.285Z,85.61
2022-08-11T03:25:42.563Z,85.4
2022-08-11T03:26:02.429Z,85.33
2022-08-11T03:26:22.511Z,85.31
2022-08-11T03:26:42.582Z,85.35
2022-08-11T03:27:02.668Z,85.39
2022-08-11T03:27:22.748Z,85.39
2022-08-11T03:27:42.817Z,85.25
2022-08-11T03:28:02.887Z,85.01
2022-08-11T03:28:22.945Z,84.94
2022-08-11T03:28:43.010Z,85.17
2022-08-11T03:29:03.114Z,85.27
2022-08-11T03:29:25.111Z,85.23
2022-08-11T03:29:43.235Z,85.26
2022-08-11T03:30:03.337Z,85.23
2022-08-11T03:30:23.392Z,85.11
2022-08-11T03:30:43.610Z,84.85
2022-08-11T03:31:03.576Z,84.64
2022-08-11T03:31:23.649Z,84.59
2022-08-11T03:31:43.730Z,84.66
2022-08-11T03:32:03.844Z,84.81
2022-08-11T03:32:23.898Z,84.94
2022-08-11T03:32:43.958Z,85.24
2022-08-11T03:33:04.051Z,85.14
2022-08-11T03:33:24.124Z,85.32
2022-08-11T03:33:44.197Z,85.53
2022-08-11T03:34:07.335Z,85.25
2022-08-11T03:34:24.324Z,85.37
2022-08-11T03:34:44.413Z,85.33
2022-08-11T03:35:04.472Z,85.25
2022-08-11T03:35:24.540Z,85.44
2022-08-11T03:35:44.754Z,85.41
2022-08-11T03:36:04.696Z,85.13
2022-08-11T03:36:24.791Z,84.83
2022-08-11T03:37:15.731Z,84.8
2022-08-11T03:37:16.839Z,84.82
2022-08-11T03:37:24.985Z,84.71
2022-08-11T03:37:45.050Z,84.7
2022-08-11T03:38:05.143Z,84.84
2022-08-11T03:38:30.588Z,84.84
2022-08-11T03:38:45.290Z,84.81
2022-08-11T03:39:05.381Z,84.77
2022-08-11T03:39:25.476Z,84.55
2022-08-11T03:39:55.502Z,84.43
2022-08-11T03:40:05.708Z,84.57
2022-08-11T03:40:25.721Z,84.85
2022-08-11T03:40:45.904Z,85.19
2022-08-11T03:41:05.824Z,85.31
2022-08-11T03:42:02.591Z,85.26
2022-08-11T03:42:04.235Z,85.27
2022-08-11T03:42:10.051Z,85.04
2022-08-11T03:42:26.112Z,84.69
2022-08-11T03:42:46.220Z,84.73
2022-08-11T03:43:06.292Z,84.82
2022-08-11T03:43:26.321Z,85.27
2022-08-11T03:43:57.935Z,85.47
2022-08-11T03:44:06.486Z,85.6
2022-08-11T03:44:26.581Z,85.56
2022-08-11T03:44:46.678Z,85.43
2022-08-11T03:45:06.758Z,85.35
2022-08-11T03:45:26.823Z,85.35
2022-08-11T03:45:47.052Z,85.45
2022-08-11T03:46:07.027Z,85.58
2022-08-11T03:46:27.099Z,85.66
2022-08-11T03:46:47.169Z,85.51
2022-08-11T03:47:07.220Z,85.35
2022-08-11T03:47:27.298Z,85.28
2022-08-11T03:47:55.161Z,85.26
2022-08-11T03:48:07.481Z,85.33
2022-08-11T03:48:27.538Z,85.51
2022-08-11T03:48:47.595Z,85.97
2022-08-11T03:49:07.703Z,86.37
2022-08-11T03:49:27.785Z,86.58
2022-08-11T03:49:47.840Z,86.43
2022-08-11T03:50:07.920Z,86.26
2022-08-11T03:50:28.003Z,86.09
2022-08-11T03:50:51.856Z,85.76
2022-08-11T03:51:08.203Z,85.53
2022-08-11T03:51:28.273Z,85.77
2022-08-11T03:51:52.193Z,86.01
2022-08-11T03:52:08.438Z,86.35
2022-08-11T03:52:28.608Z,86.41
2022-08-11T03:52:48.601Z,86.42
2022-08-11T03:53:08.681Z,86.42
2022-08-11T03:53:28.754Z,86.13
2022-08-11T03:53:48.818Z,85.94
2022-08-11T03:54:08.924Z,86.09
2022-08-11T03:54:28.969Z,86.46
2022-08-11T03:54:49.043Z,86.83
2022-08-11T03:55:09.116Z,86.98
2022-08-11T03:55:29.183Z,87.14
2022-08-11T03:55:49.379Z,87.01
2022-08-11T03:56:09.351Z,86.52
2022-08-11T03:56:29.423Z,86.17
2022-08-11T03:56:49.507Z,86.2
2022-08-11T03:57:09.570Z,86.56
2022-08-11T03:57:29.669Z,86.99
2022-08-11T03:57:49.728Z,87.22
2022-08-11T03:58:09.790Z,87.18
2022-08-11T03:58:29.851Z,87.03
2022-08-11T03:58:49.893Z,86.67
2022-08-11T03:59:09.935Z,86.47
2022-08-11T03:59:30.018Z,86.25
2022-08-11T03:59:50.090Z,86.24
2022-08-11T04:00:10.183Z,86.51
2022-08-11T04:00:30.238Z,86.71
2022-08-11T04:00:50.436Z,86.91
2022-08-11T04:01:10.423Z,87.23
2022-08-11T04:01:30.554Z,87.5
2022-08-11T04:01:50.704Z,87.57
2022-08-11T04:02:10.652Z,86.99
2022-08-11T04:02:30.742Z,86.73
2022-08-11T04:02:50.838Z,86.58
2022-08-11T04:03:10.914Z,86.45
2022-08-11T04:03:31.692Z,86.33
2022-08-11T04:03:51.071Z,86.21
2022-08-11T04:04:11.196Z,86
2022-08-11T04:04:31.235Z,85.9
2022-08-11T04:04:51.703Z,85.83
2022-08-11T04:05:11.387Z,85.82
2022-08-11T04:05:31.511Z,85.82
2022-08-11T04:05:51.694Z,85.8
2022-08-11T04:06:11.658Z,85.78
2022-08-11T04:06:31.664Z,85.75
2022-08-11T04:06:51.750Z,85.82
2022-08-11T04:07:11.813Z,85.96
2022-08-11T04:07:31.908Z,86
2022-08-11T04:07:52.000Z,85.93
2022-08-11T04:08:12.110Z,85.85
2022-08-11T04:08:33.867Z,85.73
2022-08-11T04:08:52.283Z,85.66
2022-08-11T04:09:12.382Z,85.61
2022-08-11T04:09:32.465Z,85.64
2022-08-11T04:09:52.544Z,85.86
2022-08-11T04:10:12.621Z,85.94
2022-08-11T04:10:32.721Z,85.85
2022-08-11T04:10:52.909Z,85.79
2022-08-11T04:11:12.843Z,85.72
2022-08-11T04:11:32.918Z,85.91
2022-08-11T04:11:53.009Z,86.17
2022-08-11T04:12:14.792Z,86.33
2022-08-11T04:12:35.857Z,86.45
2022-08-11T04:12:53.721Z,86.56
2022-08-11T04:13:13.329Z,86.78
2022-08-11T04:13:33.400Z,86.88
2022-08-11T04:13:53.444Z,86.91
2022-08-11T04:14:13.529Z,86.9
2022-08-11T04:14:33.580Z,86.85
2022-08-11T04:14:53.632Z,86.79
2022-08-11T04:15:13.713Z,87.03
2022-08-11T04:15:33.781Z,87.17
2022-08-11T04:15:53.993Z,87.2
2022-08-11T04:16:13.939Z,87.18
2022-08-11T04:16:34.045Z,87.24
2022-08-11T04:16:54.117Z,87.3
2022-08-11T04:17:14.224Z,87.58
2022-08-11T04:17:34.304Z,87.61
2022-08-11T04:17:54.411Z,87.64
2022-08-11T04:18:14.475Z,87.68
2022-08-11T04:18:34.558Z,87.67
2022-08-11T04:18:54.635Z,87.38
2022-08-11T04:19:14.689Z,87.2
2022-08-11T04:19:34.760Z,87.06